Time;durP1;ratioP1;P1;durP2;ratioP2;P2;SDS_P1;SDS_P2;PMS_P1;PMS_P2;Temp;Humidity;BMP_temperature;BMP_pressure;BME280_temperature;BME280_humidity;BME280_pressure;Samples;Min_cycle;Max_cycle;Signal;HPM_P1;HPM_P2
2021/11/29 00:00:22;;;;;;;4.57;3.03;;;6.00;99.90;;;;;;4903543;29;20544;-82
2021/11/29 00:02:53;;;;;;;4.30;3.30;;;6.00;99.90;;;;;;4913064;29;20887;-84
2021/11/29 00:05:24;;;;;;;2.90;2.30;;;6.00;99.90;;;;;;4906804;29;20464;-82
2021/11/29 00:07:52;;;;;;;4.67;2.77;;;6.00;99.90;;;;;;4905816;29;20636;-84
2021/11/29 00:10:21;;;;;;;4.20;2.77;;;6.00;99.90;;;;;;4913258;29;20469;-83
2021/11/29 00:12:49;;;;;;;3.27;2.10;;;6.00;99.90;;;;;;4909405;29;20450;-83
2021/11/29 00:15:17;;;;;;;1.60;1.50;;;6.10;99.90;;;;;;4906276;29;20475;-85
2021/11/29 00:17:47;;;;;;;4.97;1.77;;;6.00;99.90;;;;;;4904746;29;20466;-84
2021/11/29 00:20:16;;;;;;;2.10;2.00;;;5.80;99.90;;;;;;4907784;29;21012;-83
2021/11/29 00:22:45;;;;;;;1.77;1.50;;;5.90;99.90;;;;;;4907586;29;20556;-85
2021/11/29 00:25:13;;;;;;;1.90;1.70;;;5.90;99.90;;;;;;4909994;29;20461;-84
2021/11/29 00:27:42;;;;;;;2.93;1.90;;;6.00;99.90;;;;;;4905311;29;20572;-85
2021/11/29 00:30:13;;;;;;;2.00;1.77;;;5.90;99.90;;;;;;4907658;29;20695;-84
2021/11/29 00:32:42;;;;;;;2.75;2.53;;;5.90;99.90;;;;;;4901963;29;20466;-83
2021/11/29 00:35:12;;;;;;;4.60;2.75;;;5.70;99.90;;;;;;4916955;29;20658;-83
2021/11/29 00:37:40;;;;;;;4.43;2.30;;;5.80;99.90;;;;;;4905163;29;20821;-86
2021/11/29 00:40:14;;;;;;;2.20;2.00;;;5.90;99.90;;;;;;4908495;29;20967;-84
2021/11/29 00:42:42;;;;;;;4.82;2.33;;;5.90;99.90;;;;;;4910432;29;20461;-83
2021/11/29 00:45:12;;;;;;;4.83;2.80;;;5.80;99.90;;;;;;4916773;29;20217;-83
2021/11/29 00:47:40;;;;;;;3.80;3.07;;;5.80;99.90;;;;;;4901404;29;20474;-84
2021/11/29 00:50:11;;;;;;;3.57;2.50;;;5.90;99.90;;;;;;4922410;29;20469;-84
2021/11/29 00:52:42;;;;;;;5.50;2.45;;;5.90;99.90;;;;;;4909660;29;20458;-86
2021/11/29 00:55:12;;;;;;;4.50;3.50;;;5.90;99.90;;;;;;4900327;29;20293;-86
2021/11/29 00:57:40;;;;;;;4.78;3.00;;;5.90;99.90;;;;;;4895926;29;20461;-84
2021/11/29 01:00:13;;;;;;;6.45;3.38;;;5.90;99.90;;;;;;4904182;29;20675;-84
2021/11/29 01:02:41;;;;;;;8.73;4.70;;;5.90;99.90;;;;;;4905232;29;20224;-85
2021/11/29 01:05:10;;;;;;;6.20;3.97;;;5.90;99.90;;;;;;4914150;29;20266;-84
2021/11/29 01:07:38;;;;;;;6.78;3.50;;;6.00;99.90;;;;;;4914843;29;20473;-84
2021/11/29 01:10:10;;;;;;;7.43;4.17;;;6.00;99.90;;;;;;4914175;29;20666;-84
2021/11/29 01:12:39;;;;;;;7.03;4.37;;;5.90;99.90;;;;;;4906654;29;20854;-85
2021/11/29 01:15:10;;;;;;;6.07;4.17;;;6.00;99.90;;;;;;4918293;29;21033;-84
2021/11/29 01:17:38;;;;;;;4.23;3.67;;;5.90;99.90;;;;;;4901348;29;20545;-84
2021/11/29 01:20:09;;;;;;;5.35;4.00;;;5.90;99.90;;;;;;4908051;29;20457;-83
2021/11/29 01:22:37;;;;;;;6.90;4.87;;;5.90;99.90;;;;;;4913754;29;20215;-86
2021/11/29 01:25:07;;;;;;;6.97;4.97;;;5.90;99.90;;;;;;4917008;29;20458;-84
2021/11/29 01:27:37;;;;;;;7.80;4.57;;;5.90;99.90;;;;;;4906183;29;21008;-83
2021/11/29 01:30:07;;;;;;;6.63;4.93;;;5.90;99.90;;;;;;4904453;29;20494;-84
2021/11/29 01:32:36;;;;;;;6.10;4.50;;;5.80;99.90;;;;;;4897413;29;20792;-84
2021/11/29 01:35:05;;;;;;;7.90;5.17;;;5.80;99.90;;;;;;4904877;29;20245;-86
2021/11/29 01:37:35;;;;;;;11.17;5.00;;;5.90;99.90;;;;;;4918234;29;20464;-84
2021/11/29 01:40:04;;;;;;;7.90;4.65;;;5.90;99.90;;;;;;4915653;29;20780;-86
2021/11/29 01:42:33;;;;;;;7.30;5.30;;;5.90;99.90;;;;;;4909770;29;20200;-84
2021/11/29 01:45:05;;;;;;;9.13;5.90;;;5.80;99.90;;;;;;4905638;29;20210;-85
2021/11/29 01:47:33;;;;;;;5.60;4.60;;;5.80;99.90;;;;;;4907383;29;21300;-85
2021/11/29 01:50:01;;;;;;;9.75;6.40;;;5.80;99.90;;;;;;4912346;29;20240;-85
2021/11/29 01:52:30;;;;;;;12.57;5.80;;;5.80;99.90;;;;;;4911378;29;20209;-86
2021/11/29 01:54:59;;;;;;;9.32;5.18;;;5.90;99.90;;;;;;4918054;29;20833;-85
2021/11/29 01:57:27;;;;;;;8.90;5.70;;;5.80;99.90;;;;;;4909860;29;20210;-83
2021/11/29 01:59:55;;;;;;;8.50;5.70;;;5.80;99.90;;;;;;4900246;29;20505;-85
2021/11/29 02:02:27;;;;;;;8.83;5.20;;;5.70;99.90;;;;;;4902390;29;20465;-83
2021/11/29 02:04:58;;;;;;;7.73;5.63;;;5.70;99.90;;;;;;4909658;29;20460;-85
2021/11/29 02:07:27;;;;;;;13.80;6.53;;;5.70;99.90;;;;;;4911379;29;21097;-83
2021/11/29 02:09:56;;;;;;;8.40;4.67;;;5.80;99.90;;;;;;4919272;29;20489;-83
2021/11/29 02:12:24;;;;;;;7.47;4.50;;;5.70;99.90;;;;;;4922024;29;20835;-84
2021/11/29 02:14:52;;;;;;;6.32;5.05;;;5.80;99.90;;;;;;4903535;29;20469;-83
2021/11/29 02:17:21;;;;;;;6.97;5.10;;;5.80;99.90;;;;;;4911365;29;20486;-83
2021/11/29 02:19:51;;;;;;;6.93;5.03;;;5.70;99.90;;;;;;4911354;29;20557;-84
2021/11/29 02:22:21;;;;;;;11.90;5.97;;;5.60;99.90;;;;;;4910702;29;20565;-83
2021/11/29 02:24:49;;;;;;;9.33;5.00;;;5.70;99.90;;;;;;4913833;29;20470;-82
2021/11/29 02:27:17;;;;;;;8.30;5.37;;;5.80;99.90;;;;;;4910282;29;20549;-85
2021/11/29 02:29:46;;;;;;;8.13;5.10;;;5.80;99.90;;;;;;4908881;29;20482;-83
2021/11/29 02:32:14;;;;;;;11.87;6.63;;;6.10;99.90;;;;;;4911026;29;20491;-85
2021/11/29 02:34:43;;;;;;;10.00;6.75;;;5.80;99.90;;;;;;4912882;29;20465;-83
2021/11/29 02:37:11;;;;;;;11.23;6.33;;;5.70;99.90;;;;;;4914906;29;20228;-84
2021/11/29 02:39:42;;;;;;;10.00;5.20;;;5.70;99.90;;;;;;4915795;29;21376;-82
2021/11/29 02:42:12;;;;;;;9.77;5.80;;;5.80;99.90;;;;;;4905563;29;20492;-82
2021/11/29 02:44:42;;;;;;;6.20;5.22;;;5.80;99.90;;;;;;4898284;29;20466;-83
2021/11/29 02:47:11;;;;;;;9.43;6.88;;;5.90;99.90;;;;;;4904849;29;20213;-83
2021/11/29 02:49:39;;;;;;;9.30;5.80;;;6.00;99.90;;;;;;4913507;29;20247;-83
2021/11/29 02:52:11;;;;;;;12.35;5.10;;;6.00;99.90;;;;;;4913689;29;20480;-84
2021/11/29 02:54:43;;;;;;;7.18;5.53;;;5.80;99.90;;;;;;4917017;29;20214;-83
2021/11/29 02:57:14;;;;;;;8.67;5.57;;;6.00;99.90;;;;;;4912032;29;20574;-83
2021/11/29 02:59:43;;;;;;;6.00;5.33;;;5.80;99.90;;;;;;4913427;29;20473;-83
2021/11/29 03:02:13;;;;;;;10.43;7.10;;;5.80;99.90;;;;;;4914907;29;20984;-83
2021/11/29 03:04:43;;;;;;;5.97;5.23;;;5.90;99.90;;;;;;4913350;29;20469;-84
2021/11/29 03:07:11;;;;;;;9.20;6.50;;;5.90;99.90;;;;;;4901979;29;20458;-85
2021/11/29 03:09:41;;;;;;;6.47;5.20;;;6.10;99.90;;;;;;4920175;29;20484;-83
2021/11/29 03:12:10;;;;;;;6.10;5.23;;;5.80;99.90;;;;;;4908584;29;20552;-85
2021/11/29 03:14:38;;;;;;;7.27;5.17;;;5.90;99.90;;;;;;4911301;29;20456;-85
2021/11/29 03:17:07;;;;;;;7.20;5.50;;;5.80;99.90;;;;;;4901592;29;20458;-84
2021/11/29 03:19:38;;;;;;;6.53;5.40;;;5.60;99.90;;;;;;4919447;29;21105;-86
2021/11/29 03:22:09;;;;;;;11.67;6.50;;;5.60;99.90;;;;;;4915990;29;20467;-83
2021/11/29 03:24:38;;;;;;;9.00;5.95;;;5.70;99.90;;;;;;4926219;29;20516;-85
2021/11/29 03:27:08;;;;;;;9.37;6.43;;;5.70;99.90;;;;;;4902350;29;20302;-84
2021/11/29 03:29:36;;;;;;;9.73;5.75;;;5.70;99.90;;;;;;4912470;29;20484;-86
2021/11/29 03:32:06;;;;;;;5.75;4.50;;;5.80;99.90;;;;;;4915081;29;21290;-85
2021/11/29 03:34:39;;;;;;;8.43;5.43;;;5.80;99.90;;;;;;4911368;29;20205;-83
2021/11/29 03:37:08;;;;;;;7.70;5.33;;;5.80;99.90;;;;;;4912582;29;20475;-84
2021/11/29 03:39:36;;;;;;;9.00;5.50;;;6.00;99.90;;;;;;4905549;29;20546;-83
2021/11/29 03:42:07;;;;;;;8.90;5.53;;;5.80;99.90;;;;;;4917882;29;20592;-84
2021/11/29 03:44:36;;;;;;;9.70;5.63;;;5.90;99.90;;;;;;4895956;29;20496;-83
2021/11/29 03:47:06;;;;;;;11.37;5.43;;;5.90;99.90;;;;;;4913880;29;20469;-85
2021/11/29 03:49:35;;;;;;;8.57;5.70;;;5.80;99.90;;;;;;4912404;29;20857;-83
2021/11/29 03:52:04;;;;;;;5.40;4.17;;;5.80;99.90;;;;;;4918076;29;20548;-82
2021/11/29 03:54:33;;;;;;;8.70;5.40;;;5.80;99.90;;;;;;4905245;29;20838;-83
2021/11/29 03:57:01;;;;;;;9.57;5.65;;;5.70;99.90;;;;;;4907289;29;21243;-83
2021/11/29 03:59:30;;;;;;;6.40;5.10;;;5.70;99.90;;;;;;4909800;29;20224;-83
2021/11/29 04:01:59;;;;;;;9.17;5.70;;;5.60;99.90;;;;;;4912275;29;20461;-83
2021/11/29 04:04:27;;;;;;;6.95;5.65;;;5.50;99.90;;;;;;4916697;29;20551;-83
2021/11/29 04:06:55;;;;;;;7.50;5.50;;;5.60;99.90;;;;;;4914394;29;20245;-85
2021/11/29 04:09:24;;;;;;;12.33;6.50;;;5.70;99.90;;;;;;4915039;29;20993;-82
2021/11/29 04:11:52;;;;;;;8.25;4.40;;;5.70;99.90;;;;;;4912410;29;20497;-86
2021/11/29 04:14:20;;;;;;;8.85;6.57;;;5.60;99.90;;;;;;4910950;29;20213;-85
2021/11/29 04:16:50;;;;;;;10.23;6.05;;;5.70;99.90;;;;;;4902851;29;20199;-84
2021/11/29 04:19:18;;;;;;;7.25;5.38;;;5.70;99.90;;;;;;4902187;29;20229;-85
2021/11/29 04:21:47;;;;;;;10.40;6.97;;;5.90;99.90;;;;;;4917042;29;20212;-84
2021/11/29 04:24:16;;;;;;;9.02;5.28;;;5.60;99.90;;;;;;4909550;29;20486;-84
2021/11/29 04:26:50;;;;;;;9.17;5.33;;;5.70;99.90;;;;;;4906506;29;20670;-85
2021/11/29 04:29:22;;;;;;;10.33;5.57;;;5.70;99.90;;;;;;4904072;29;20492;-83
2021/11/29 04:31:52;;;;;;;9.70;6.30;;;5.70;99.90;;;;;;4908582;29;21079;-84
2021/11/29 04:34:20;;;;;;;10.23;5.50;;;6.00;99.90;;;;;;4913523;29;20484;-85
2021/11/29 04:36:48;;;;;;;9.40;6.13;;;5.70;99.90;;;;;;4899962;29;20466;-82
2021/11/29 04:39:17;;;;;;;10.30;5.60;;;5.70;99.90;;;;;;4919721;29;20496;-84
2021/11/29 04:41:46;;;;;;;13.33;6.23;;;5.70;99.90;;;;;;4903360;29;20466;-83
2021/11/29 04:44:15;;;;;;;13.93;6.83;;;5.70;99.90;;;;;;4909154;29;20500;-84
2021/11/29 04:46:43;;;;;;;8.50;6.25;;;5.70;99.90;;;;;;4903939;29;20478;-83
2021/11/29 04:49:13;;;;;;;13.27;6.60;;;5.70;99.90;;;;;;4908122;29;20610;-83
2021/11/29 04:51:41;;;;;;;12.02;8.02;;;5.70;99.90;;;;;;4897683;29;20489;-84
2021/11/29 04:54:10;;;;;;;8.43;5.70;;;5.60;99.90;;;;;;4919554;29;20206;-85
2021/11/29 04:56:39;;;;;;;11.20;5.93;;;5.60;99.90;;;;;;4899876;29;20477;-82
2021/11/29 04:59:07;;;;;;;11.05;6.72;;;5.60;99.90;;;;;;4911405;29;20998;-83
2021/11/29 05:01:36;;;;;;;9.63;6.40;;;5.60;99.90;;;;;;4911500;29;20201;-82
2021/11/29 05:04:05;;;;;;;12.30;6.23;;;5.60;99.90;;;;;;4915054;29;20464;-83
2021/11/29 05:06:37;;;;;;;8.97;5.27;;;5.60;99.90;;;;;;4907601;29;20452;-82
2021/11/29 05:09:06;;;;;;;9.67;6.53;;;5.70;99.90;;;;;;4917623;29;20994;-81
2021/11/29 05:11:34;;;;;;;11.77;6.50;;;5.80;99.90;;;;;;4900444;29;20487;-83
2021/11/29 05:14:02;;;;;;;9.00;5.43;;;6.00;99.90;;;;;;4908637;29;20469;-83
2021/11/29 05:16:32;;;;;;;8.52;6.05;;;5.70;99.90;;;;;;4908609;29;20917;-83
2021/11/29 05:19:00;;;;;;;10.30;5.68;;;5.70;99.90;;;;;;4885549;29;20229;-83
2021/11/29 05:21:29;;;;;;;8.83;5.87;;;5.70;99.90;;;;;;4908545;29;20680;-83
2021/11/29 05:23:58;;;;;;;7.85;4.93;;;5.70;99.90;;;;;;4911493;29;20461;-83
2021/11/29 05:26:27;;;;;;;7.37;4.97;;;5.90;99.90;;;;;;4889803;29;20206;-83
2021/11/29 05:28:59;;;;;;;7.40;5.18;;;5.60;99.90;;;;;;4914763;29;20489;-84
2021/11/29 05:31:28;;;;;;;8.07;5.40;;;5.60;99.90;;;;;;4911655;29;20336;-83
2021/11/29 05:33:56;;;;;;;9.05;5.28;;;5.90;99.90;;;;;;4916089;29;20465;-80
2021/11/29 05:36:25;;;;;;;8.37;4.50;;;5.50;99.90;;;;;;4904152;29;20208;-82
2021/11/29 05:38:53;;;;;;;8.43;5.80;;;5.50;99.90;;;;;;4913531;29;20495;-82
2021/11/29 05:41:22;;;;;;;5.43;4.13;;;5.60;99.90;;;;;;4901658;29;20466;-81
2021/11/29 05:43:51;;;;;;;8.38;4.78;;;5.50;99.90;;;;;;4909197;29;20464;-81
2021/11/29 05:46:22;;;;;;;6.67;4.13;;;5.50;99.90;;;;;;4913014;29;20217;-83
2021/11/29 05:48:51;;;;;;;6.80;3.97;;;5.40;99.90;;;;;;4912390;29;20870;-81
2021/11/29 05:51:20;;;;;;;7.90;4.33;;;5.30;99.90;;;;;;4911533;29;20481;-82
2021/11/29 05:53:49;;;;;;;7.28;5.63;;;5.30;99.90;;;;;;4899471;29;20529;-81
2021/11/29 05:56:18;;;;;;;10.53;5.20;;;5.40;99.90;;;;;;4908111;29;20292;-79
2021/11/29 05:58:47;;;;;;;6.90;4.43;;;5.50;99.90;;;;;;4901041;29;20541;-82
2021/11/29 06:01:16;;;;;;;9.98;5.45;;;5.20;99.90;;;;;;4900181;29;20471;-82
2021/11/29 06:03:45;;;;;;;8.05;5.25;;;5.30;99.90;;;;;;4904979;29;20237;-80
2021/11/29 06:06:13;;;;;;;7.70;4.43;;;5.30;99.90;;;;;;4907371;29;20213;-81
2021/11/29 06:08:42;;;;;;;5.90;3.57;;;5.30;99.90;;;;;;4894539;29;20515;-80
2021/11/29 06:11:10;;;;;;;7.53;4.93;;;5.40;99.90;;;;;;4898636;29;20488;-82
2021/11/29 06:13:39;;;;;;;6.82;4.97;;;5.40;99.90;;;;;;4901868;29;20454;-81
2021/11/29 06:16:08;;;;;;;6.03;4.13;;;5.50;99.90;;;;;;4895322;29;20757;-80
2021/11/29 06:18:38;;;;;;;6.18;4.43;;;5.50;99.90;;;;;;4896198;29;20573;-81
2021/11/29 06:21:06;;;;;;;6.25;3.72;;;5.60;99.90;;;;;;4905660;29;20206;-82
2021/11/29 06:23:35;;;;;;;7.00;4.10;;;5.50;99.90;;;;;;4897964;29;20221;-81
2021/11/29 06:26:04;;;;;;;7.25;5.82;;;5.50;99.90;;;;;;4899120;29;20835;-83
2021/11/29 06:28:33;;;;;;;7.63;4.80;;;5.50;99.90;;;;;;4896905;29;20230;-81
2021/11/29 06:31:02;;;;;;;4.13;3.30;;;5.60;99.90;;;;;;4907235;29;20498;-81
2021/11/29 06:33:32;;;;;;;8.00;3.80;;;5.30;99.90;;;;;;4901015;29;21081;-81
2021/11/29 06:36:00;;;;;;;5.60;4.63;;;5.10;99.90;;;;;;4900863;29;20947;-81
2021/11/29 06:38:30;;;;;;;4.65;3.30;;;5.20;99.90;;;;;;4918012;29;20717;-83
2021/11/29 06:40:59;;;;;;;6.90;4.10;;;5.30;99.90;;;;;;4909641;29;20197;-82
2021/11/29 06:43:28;;;;;;;4.60;3.37;;;5.20;99.90;;;;;;4909981;29;20481;-81
2021/11/29 06:45:57;;;;;;;6.07;4.38;;;5.40;99.90;;;;;;4909379;29;20467;-83
2021/11/29 06:48:25;;;;;;;4.10;3.27;;;5.50;99.90;;;;;;4901275;29;20249;-82
2021/11/29 06:50:56;;;;;;;5.47;3.85;;;5.30;99.90;;;;;;4903907;29;20493;-81
2021/11/29 06:53:25;;;;;;;5.23;2.93;;;5.30;99.90;;;;;;4906597;29;20283;-83
2021/11/29 06:55:55;;;;;;;9.52;4.93;;;5.40;99.90;;;;;;4916449;29;20461;-84
2021/11/29 06:58:25;;;;;;;8.47;4.00;;;5.50;99.90;;;;;;4903093;29;20328;-82
2021/11/29 07:00:53;;;;;;;6.63;3.75;;;5.50;99.90;;;;;;4922418;29;20457;-81
2021/11/29 07:03:22;;;;;;;8.83;4.57;;;5.30;99.90;;;;;;4910230;29;20198;-81
2021/11/29 07:05:51;;;;;;;5.83;3.80;;;5.50;99.90;;;;;;4909212;29;20481;-81
2021/11/29 07:08:21;;;;;;;6.03;3.07;;;5.40;99.90;;;;;;4912648;29;20914;-82
2021/11/29 07:10:49;;;;;;;6.60;3.57;;;5.40;99.90;;;;;;4900833;29;20828;-82
2021/11/29 07:13:17;;;;;;;5.77;3.87;;;5.40;99.90;;;;;;4910051;29;20445;-81
2021/11/29 07:15:46;;;;;;;5.67;2.97;;;5.40;99.90;;;;;;4909218;29;20465;-81
2021/11/29 07:18:15;;;;;;;6.53;3.53;;;5.30;99.90;;;;;;4896646;29;20470;-83
2021/11/29 07:20:44;;;;;;;6.35;3.05;;;5.50;99.90;;;;;;4909079;29;20205;-83
2021/11/29 07:23:12;;;;;;;5.72;3.38;;;5.30;99.90;;;;;;4910089;29;20213;-82
2021/11/29 07:25:42;;;;;;;5.03;3.20;;;5.20;99.90;;;;;;4907953;29;20780;-81
2021/11/29 07:28:11;;;;;;;5.15;3.53;;;5.20;99.90;;;;;;4907799;29;20480;-82
2021/11/29 07:30:39;;;;;;;5.00;4.30;;;5.20;99.90;;;;;;4915366;29;20631;-81
2021/11/29 07:33:07;;;;;;;8.02;3.47;;;5.30;99.90;;;;;;4907580;29;20936;-81
2021/11/29 07:35:36;;;;;;;5.60;3.35;;;5.30;99.90;;;;;;4906603;29;20329;-82
2021/11/29 07:38:04;;;;;;;5.60;3.40;;;5.60;99.90;;;;;;4903093;29;20609;-82
2021/11/29 07:40:33;;;;;;;7.50;3.13;;;5.50;99.90;;;;;;4907289;29;20466;-81
2021/11/29 07:43:05;;;;;;;4.37;3.00;;;5.30;99.90;;;;;;4905382;29;20450;-80
2021/11/29 07:45:34;;;;;;;6.50;3.90;;;5.20;99.90;;;;;;4899367;29;20465;-79
2021/11/29 07:48:02;;;;;;;4.10;3.27;;;5.30;99.90;;;;;;4905334;29;20205;-82
2021/11/29 07:50:31;;;;;;;3.80;2.97;;;5.30;99.90;;;;;;4902566;29;21133;-78
2021/11/29 07:53:00;;;;;;;4.20;3.07;;;5.30;99.90;;;;;;4904293;29;20881;-81
2021/11/29 07:55:29;;;;;;;7.70;4.07;;;5.40;99.90;;;;;;4906270;29;20465;-81
2021/11/29 07:57:59;;;;;;;6.37;3.73;;;5.40;99.90;;;;;;4899476;29;20212;-80
2021/11/29 08:00:33;;;;;;;5.05;2.75;;;5.60;99.90;;;;;;4906369;29;20459;-81
2021/11/29 08:03:03;;;;;;;5.53;3.27;;;5.40;99.90;;;;;;4905537;29;20296;-81
2021/11/29 08:05:33;;;;;;;3.30;2.60;;;5.40;99.90;;;;;;4907329;29;20461;-79
2021/11/29 08:08:07;;;;;;;6.78;3.20;;;5.40;99.90;;;;;;4900623;29;20277;-82
2021/11/29 08:10:37;;;;;;;3.25;2.85;;;5.40;99.90;;;;;;4906917;29;20217;-80
2021/11/29 08:13:07;;;;;;;6.17;2.87;;;5.50;99.90;;;;;;4906834;29;20694;-81
2021/11/29 08:15:37;;;;;;;2.92;2.30;;;5.60;99.90;;;;;;4900876;29;20470;-79
2021/11/29 08:18:06;;;;;;;3.70;2.43;;;5.50;99.90;;;;;;4906822;29;20646;-80
2021/11/29 08:20:36;;;;;;;4.47;2.85;;;5.30;99.90;;;;;;4914796;29;20972;-80
2021/11/29 08:23:05;;;;;;;4.73;2.33;;;5.30;99.90;;;;;;4894267;29;20298;-79
2021/11/29 08:25:33;;;;;;;3.33;2.30;;;5.50;99.90;;;;;;4907082;29;20454;-77
2021/11/29 08:28:01;;;;;;;5.30;2.87;;;5.40;99.90;;;;;;4904939;29;20508;-82
2021/11/29 08:30:30;;;;;;;2.47;1.83;;;5.40;99.90;;;;;;4917142;29;20453;-83
2021/11/29 08:32:59;;;;;;;3.10;2.27;;;5.40;99.90;;;;;;4898380;29;20489;-81
2021/11/29 08:35:28;;;;;;;4.07;2.70;;;5.50;99.90;;;;;;4905507;29;20466;-82
2021/11/29 08:37:58;;;;;;;6.87;2.60;;;5.50;99.90;;;;;;4908791;29;20202;-79
2021/11/29 08:40:29;;;;;;;4.30;2.10;;;5.60;99.90;;;;;;4914471;29;20479;-79
2021/11/29 08:43:00;;;;;;;3.60;1.90;;;5.60;99.90;;;;;;4905654;29;20466;-79
2021/11/29 08:45:31;;;;;;;2.47;1.90;;;5.60;99.90;;;;;;4914927;29;20458;-79
2021/11/29 08:48:02;;;;;;;2.47;1.50;;;5.60;99.90;;;;;;4906104;29;20465;-79
2021/11/29 08:50:31;;;;;;;2.20;2.03;;;5.50;99.90;;;;;;4906968;29;20469;-81
2021/11/29 08:53:02;;;;;;;6.03;1.87;;;5.50;99.90;;;;;;4899432;29;21024;-79
2021/11/29 08:55:31;;;;;;;2.80;1.87;;;5.60;99.90;;;;;;4907248;29;20465;-79
2021/11/29 08:58:00;;;;;;;2.55;1.80;;;5.60;99.90;;;;;;4906664;29;20466;-80
2021/11/29 09:00:29;;;;;;;1.90;1.50;;;5.70;99.90;;;;;;4906479;29;20202;-79
2021/11/29 09:02:59;;;;;;;2.80;2.00;;;5.80;99.90;;;;;;4911988;29;20457;-80
2021/11/29 09:05:30;;;;;;;2.90;1.67;;;5.80;99.90;;;;;;4902392;29;21061;-79
2021/11/29 09:07:58;;;;;;;3.80;1.80;;;5.80;99.90;;;;;;4906863;29;20450;-79
2021/11/29 09:10:27;;;;;;;2.60;1.73;;;5.80;99.90;;;;;;4909248;29;20466;-80
2021/11/29 09:12:55;;;;;;;3.00;1.80;;;5.90;99.90;;;;;;4905710;29;20526;-79
2021/11/29 09:15:24;;;;;;;2.60;2.07;;;5.90;99.90;;;;;;4897442;29;21049;-81
2021/11/29 09:17:53;;;;;;;4.03;2.23;;;5.90;99.90;;;;;;4895676;29;20467;-80
2021/11/29 09:20:25;;;;;;;2.83;1.60;;;5.90;99.90;;;;;;4905458;29;20454;-80
2021/11/29 09:22:56;;;;;;;3.22;2.10;;;6.00;99.90;;;;;;4904838;29;20458;-78
2021/11/29 09:25:26;;;;;;;2.00;1.80;;;6.00;99.90;;;;;;4904913;29;20218;-81
2021/11/29 09:27:56;;;;;;;2.03;1.60;;;6.10;99.90;;;;;;4904499;29;20926;-79
2021/11/29 09:30:24;;;;;;;7.80;2.30;;;6.20;99.90;;;;;;4903522;29;20476;-80
2021/11/29 09:32:53;;;;;;;2.73;1.63;;;6.30;99.90;;;;;;4906540;29;20537;-82
2021/11/29 09:35:21;;;;;;;2.30;1.33;;;6.40;99.90;;;;;;4908470;29;20547;-81
2021/11/29 09:37:50;;;;;;;3.03;1.30;;;6.40;99.90;;;;;;4904929;29;20462;-78
2021/11/29 09:40:22;;;;;;;2.80;1.57;;;6.60;99.90;;;;;;4911956;29;20478;-78
2021/11/29 09:42:52;;;;;;;2.67;1.70;;;6.80;99.90;;;;;;4914883;29;20454;-79
2021/11/29 09:45:23;;;;;;;1.80;1.30;;;6.80;99.90;;;;;;4910242;29;20465;-78
2021/11/29 09:47:52;;;;;;;3.87;1.53;;;7.00;99.90;;;;;;4893737;29;20457;-83
2021/11/29 09:50:21;;;;;;;2.90;1.23;;;7.20;99.90;;;;;;4898916;29;20467;-79
2021/11/29 09:52:50;;;;;;;1.13;0.80;;;7.40;99.90;;;;;;4911182;29;20480;-84
2021/11/29 09:55:22;;;;;;;2.80;1.27;;;7.60;99.90;;;;;;4904148;29;21022;-78
2021/11/29 09:57:51;;;;;;;1.53;1.20;;;7.80;99.90;;;;;;4897358;29;20535;-76
2021/11/29 10:00:23;;;;;;;3.92;1.60;;;7.90;99.90;;;;;;4897817;29;20514;-79
2021/11/29 10:02:52;;;;;;;1.40;1.27;;;8.30;99.90;;;;;;4903545;29;20211;-83
2021/11/29 10:05:22;;;;;;;1.97;1.20;;;8.40;99.90;;;;;;4902979;29;20525;-80
2021/11/29 10:07:52;;;;;;;1.83;1.40;;;8.50;99.90;;;;;;4904390;29;20453;-79
2021/11/29 10:10:26;;;;;;;1.60;1.50;;;8.40;99.90;;;;;;4905187;29;20458;-82
2021/11/29 10:12:59;;;;;;;2.67;1.33;;;8.40;99.90;;;;;;4909042;29;20695;-80
2021/11/29 10:15:29;;;;;;;1.57;1.20;;;8.50;99.90;;;;;;4919703;29;20837;-83
2021/11/29 10:18:11;;;;;;;4.10;1.83;;;8.50;99.90;;;;;;4909925;29;20462;-79
2021/11/29 10:20:50;;;;;;;2.33;1.50;;;8.40;99.90;;;;;;4909573;29;20493;-78
2021/11/29 10:23:28;;;;;;;1.60;1.48;;;8.00;99.90;;;;;;4905227;29;20452;-81
2021/11/29 10:25:59;;;;;;;3.30;1.85;;;8.10;99.90;;;;;;4904544;29;20981;-80
2021/11/29 10:28:30;;;;;;;1.67;1.57;;;8.10;99.90;;;;;;4916162;29;20609;-82
2021/11/29 10:31:22;;;;;;;3.10;1.33;;;8.10;99.90;;;;;;4900759;29;20456;-79
2021/11/29 10:33:59;;;;;;;1.57;1.40;;;8.10;99.90;;;;;;4904215;29;20538;-80
2021/11/29 10:36:30;;;;;;;3.70;1.10;;;8.00;99.90;;;;;;4902467;29;20457;-82
2021/11/29 10:39:02;;;;;;;1.23;1.13;;;8.00;99.90;;;;;;4912463;29;21017;-80
2021/11/29 10:41:34;;;;;;;2.47;1.20;;;7.90;99.90;;;;;;4903246;29;20552;-78
2021/11/29 10:44:07;;;;;;;3.43;1.10;;;7.80;99.90;;;;;;4910287;29;20460;-83
2021/11/29 10:46:37;;;;;;;2.60;1.30;;;7.80;99.90;;;;;;4907948;29;20479;-80
2021/11/29 10:49:09;;;;;;;2.13;1.47;;;7.70;99.90;;;;;;4920802;29;20523;-81
2021/11/29 10:51:38;;;;;;;1.83;1.17;;;7.70;99.90;;;;;;4900834;29;20486;-79
2021/11/29 10:54:09;;;;;;;1.95;1.40;;;7.60;99.90;;;;;;4916275;29;20487;-79
2021/11/29 10:56:41;;;;;;;2.13;1.07;;;7.50;99.90;;;;;;4904184;29;20213;-79
2021/11/29 10:59:12;;;;;;;1.23;0.80;;;7.50;99.90;;;;;;4909373;29;20478;-80
2021/11/29 11:01:43;;;;;;;1.20;0.80;;;7.50;99.90;;;;;;4914250;29;20495;-79
2021/11/29 11:04:14;;;;;;;3.10;1.30;;;7.50;99.90;;;;;;4897614;29;20468;-81
2021/11/29 11:06:45;;;;;;;2.67;1.20;;;7.50;99.90;;;;;;4912538;29;20465;-80
2021/11/29 11:09:17;;;;;;;2.57;1.47;;;7.40;99.90;;;;;;4911293;29;20490;-80
2021/11/29 11:11:49;;;;;;;1.53;1.13;;;7.60;99.90;;;;;;4911730;29;20832;-81
2021/11/29 11:14:20;;;;;;;0.93;0.83;;;7.40;99.90;;;;;;4904023;29;20856;-81
2021/11/29 11:16:55;;;;;;;2.40;1.20;;;7.60;99.90;;;;;;4905673;29;20485;-81
2021/11/29 11:19:36;;;;;;;1.50;1.00;;;7.50;99.90;;;;;;4901914;29;20495;-79
2021/11/29 11:22:18;;;;;;;1.10;1.00;;;7.40;99.90;;;;;;4903990;29;20452;-79
2021/11/29 11:24:50;;;;;;;1.90;1.23;;;7.50;99.90;;;;;;4905835;29;20455;-80
2021/11/29 11:27:20;;;;;;;2.80;1.17;;;7.50;99.90;;;;;;4898282;29;20462;-80
2021/11/29 11:29:51;;;;;;;1.33;1.20;;;7.60;99.90;;;;;;4907962;29;20489;-78
2021/11/29 11:32:23;;;;;;;1.63;1.10;;;7.60;99.90;;;;;;4914839;29;20480;-81
2021/11/29 11:34:55;;;;;;;3.93;1.40;;;7.70;99.90;;;;;;4904479;29;20551;-84
2021/11/29 11:37:25;;;;;;;3.73;1.30;;;7.60;99.90;;;;;;4908410;29;20472;-80
2021/11/29 11:39:55;;;;;;;2.50;1.60;;;7.60;99.90;;;;;;4903500;29;20687;-79
2021/11/29 11:42:25;;;;;;;4.40;1.40;;;7.60;99.90;;;;;;4902103;29;20472;-81
2021/11/29 11:44:56;;;;;;;0.97;0.80;;;7.50;99.90;;;;;;4900050;29;20811;-83
2021/11/29 11:47:27;;;;;;;2.50;1.50;;;7.50;99.90;;;;;;4899939;29;20474;-81
2021/11/29 11:49:56;;;;;;;3.80;1.10;;;7.50;99.90;;;;;;4905680;29;20489;-83
2021/11/29 11:52:25;;;;;;;1.38;1.10;;;7.40;99.90;;;;;;4896242;29;20716;-82
2021/11/29 11:54:57;;;;;;;1.23;1.10;;;7.30;99.90;;;;;;4899765;29;20233;-80
2021/11/29 11:57:50;;;;;;;2.10;1.60;;;7.40;99.90;;;;;;4894547;29;20556;-79
2021/11/29 12:00:26;;;;;;;1.60;1.50;;;7.20;99.90;;;;;;4907218;29;20500;-81
2021/11/29 12:03:07;;;;;;;1.00;0.90;;;7.20;99.90;;;;;;4906562;29;20609;-80
2021/11/29 12:05:38;;;;;;;2.10;1.40;;;7.40;99.90;;;;;;4903674;29;20579;-79
2021/11/29 12:08:40;;;;;;;1.77;1.17;;;7.30;99.90;;;;;;4893589;29;20490;-80
2021/11/29 12:11:37;;;;;;;1.50;1.40;;;7.50;99.90;;;;;;4912017;29;20617;-81
2021/11/29 12:14:17;;;;;;;3.37;1.10;;;7.60;99.90;;;;;;4897623;29;20579;-80
2021/11/29 12:16:48;;;;;;;1.83;1.27;;;7.70;99.90;;;;;;4900616;29;20458;-81
2021/11/29 12:19:36;;;;;;;1.30;1.17;;;7.80;99.90;;;;;;4903180;29;20496;-79
2021/11/29 12:22:28;;;;;;;4.22;1.40;;;8.00;99.90;;;;;;4913081;29;21088;-81
2021/11/29 12:24:59;;;;;;;1.93;1.83;;;7.60;99.90;;;;;;4898787;29;20200;-77
2021/11/29 12:27:42;;;;;;;2.30;1.00;;;7.50;99.90;;;;;;4898896;29;20458;-78
2021/11/29 12:30:17;;;;;;;2.00;1.60;;;7.60;99.90;;;;;;4899013;29;20454;-79
2021/11/29 12:33:01;;;;;;;3.43;1.20;;;7.60;99.90;;;;;;4895279;29;20624;-78
2021/11/29 12:35:38;;;;;;;1.93;1.20;;;7.60;99.90;;;;;;4904190;29;20550;-82
2021/11/29 12:38:22;;;;;;;3.10;1.27;;;7.40;99.90;;;;;;4906048;29;20562;-81
2021/11/29 12:40:53;;;;;;;2.40;1.20;;;7.40;99.90;;;;;;4901236;29;20485;-77
2021/11/29 12:43:34;;;;;;;2.50;1.07;;;7.40;99.90;;;;;;4900537;29;20470;-79
2021/11/29 12:46:25;;;;;;;2.23;1.20;;;7.40;99.90;;;;;;4903840;29;21369;-77
2021/11/29 12:48:56;;;;;;;1.93;1.40;;;7.40;99.90;;;;;;4897405;29;20529;-79
2021/11/29 12:51:45;;;;;;;1.80;1.53;;;7.30;99.90;;;;;;4916016;29;20834;-78
2021/11/29 12:54:40;;;;;;;2.80;1.80;;;7.30;99.90;;;;;;4908145;29;20534;-80
2021/11/29 12:57:22;;;;;;;2.30;2.10;;;7.30;99.90;;;;;;4898994;29;21195;-78
2021/11/29 12:59:52;;;;;;;3.63;1.57;;;7.10;99.90;;;;;;4907139;29;20481;-84
2021/11/29 13:02:45;;;;;;;1.60;1.43;;;7.10;99.90;;;;;;4899961;29;20475;-80
2021/11/29 13:05:38;;;;;;;6.50;1.93;;;7.00;99.90;;;;;;4912573;29;20482;-79
2021/11/29 13:08:09;;;;;;;2.77;2.00;;;7.10;99.90;;;;;;4897900;29;20501;-79
2021/11/29 13:10:53;;;;;;;4.23;2.00;;;6.90;99.90;;;;;;4902407;29;20514;-79
2021/11/29 13:13:45;;;;;;;2.43;1.97;;;6.90;99.90;;;;;;4895450;29;20480;-80